| time (UTC) | temp C | wind direction | speed KPH | gust KPH | rain 1hr cm | rain 24hr cm | rain mn cm | humidity % | barometer mb |
| 20260508224901 | 24 | 301 | 3.2 | 19.3 | 0.00 | 0.00 | 0.00 | 18 | 1008.1 |
| 20260508224401 | 25 | 316 | 4.8 | 20.9 | 0.00 | 0.00 | 0.00 | 19 | 1008.1 |
| 20260508222901 | 25 | 266 | 4.8 | 19.3 | 0.00 | 0.00 | 0.00 | 18 | 1008.3 |
| 20260508221902 | 24 | 245 | 1.6 | 14.5 | 0.00 | 0.00 | 0.00 | 18 | 1008.4 |
| 20260508221401 | 24 | 240 | 12.9 | 27.4 | 0.00 | 0.00 | 0.00 | 18 | 1008.5 |
| 20260508220901 | 24 | 285 | 8.0 | 19.3 | 0.00 | 0.00 | 0.00 | 18 | 1008.6 |
| 20260508220401 | 24 | 263 | 11.3 | 19.3 | 0.00 | 0.00 | 0.00 | 16 | 1008.7 |
| 20260508215901 | 25 | 216 | 9.7 | 20.9 | 0.00 | 0.00 | 0.00 | 18 | 1008.7 |
| 20260508215401 | 25 | 269 | 8.0 | 25.7 | 0.00 | 0.00 | 0.00 | 18 | 1008.7 |
| 20260508214901 | 25 | 245 | 9.7 | 27.4 | 0.00 | 0.00 | 0.00 | 19 | 1008.8 |
| 20260508214402 | 25 | 261 | 11.3 | 27.4 | 0.00 | 0.00 | 0.00 | 18 | 1008.8 |
| 20260508213901 | 25 | 269 | 4.8 | 24.1 | 0.00 | 0.00 | 0.00 | 18 | 1008.8 |
| 20260508213401 | 25 | 280 | 4.8 | 19.3 | 0.00 | 0.00 | 0.00 | 16 | 1008.8 |
| 20260508212901 | 25 | 268 | 9.7 | 19.3 | 0.00 | 0.00 | 0.00 | 18 | 1008.8 |
| 20260508212401 | 25 | 262 | 11.3 | 25.7 | 0.00 | 0.00 | 0.00 | 17 | 1009.0 |
| 20260508211401 | 25 | 288 | 3.2 | 16.1 | 0.00 | 0.00 | 0.00 | 18 | 1009.0 |
| 20260508210901 | 25 | 254 | 4.8 | 19.3 | 0.00 | 0.00 | 0.00 | 18 | 1009.0 |
| 20260508210401 | 25 | 248 | 1.6 | 14.5 | 0.00 | 0.00 | 0.00 | 19 | 1009.1 |
| 20260508205901 | 25 | 322 | 1.6 | 11.3 | 0.00 | 0.00 | 0.00 | 18 | 1009.2 |
| 20260508204901 | 25 | 268 | 8.0 | 22.5 | 0.00 | 0.00 | 0.00 | 17 | 1009.2 |
| 20260508204401 | 25 | 240 | 1.6 | 25.7 | 0.00 | 0.00 | 0.00 | 19 | 1009.3 |
| 20260508203901 | 25 | 291 | 1.6 | 14.5 | 0.00 | 0.00 | 0.00 | 19 | 1009.4 |
| 20260508202402 | 24 | 351 | 4.8 | 19.3 | 0.00 | 0.00 | 0.00 | 18 | 1009.6 |
| 20260508201902 | 25 | 314 | 3.2 | 19.3 | 0.00 | 0.00 | 0.00 | 18 | 1009.6 |
| 20260508201401 | 25 | 286 | 9.7 | 20.9 | 0.00 | 0.00 | 0.00 | 18 | 1009.6 |
| 20260508200901 | 25 | 303 | 4.8 | 12.9 | 0.00 | 0.00 | 0.00 | 20 | 1009.6 |
| 20260508200401 | 24 | 274 | 8.0 | 16.1 | 0.00 | 0.00 | 0.00 | 19 | 1009.7 |
| 20260508194901 | 24 | 238 | 3.2 | 22.5 | 0.00 | 0.00 | 0.00 | 20 | 1009.7 |
| 20260508193401 | 23 | 343 | 1.6 | 19.3 | 0.00 | 0.00 | 0.00 | 20 | 1010.0 |
| 20260508192901 | 23 | 263 | 6.4 | 20.9 | 0.00 | 0.00 | 0.00 | 20 | 1010.1 |
| 20260508192402 | 23 | 314 | 3.2 | 16.1 | 0.00 | 0.00 | 0.00 | 20 | 1010.1 |
| 20260508191901 | 22 | 24 | 4.8 | 11.3 | 0.00 | 0.00 | 0.00 | 20 | 1010.1 |
| 20260508191402 | 23 | 340 | 8.0 | 19.3 | 0.00 | 0.00 | 0.00 | 19 | 1010.2 |
| 20260508190401 | 23 | 312 | 8.0 | 24.1 | 0.00 | 0.00 | 0.00 | 20 | 1010.3 |
| 20260508185901 | 23 | 323 | 3.2 | 19.3 | 0.00 | 0.00 | 0.00 | 20 | 1010.3 |
| 20260508185402 | 23 | 252 | 3.2 | 19.3 | 0.00 | 0.00 | 0.00 | 20 | 1010.4 |
| 20260508184901 | 22 | 335 | 4.8 | 14.5 | 0.00 | 0.00 | 0.00 | 21 | 1010.5 |
| 20260508184405 | 23 | 317 | 3.2 | 12.9 | 0.00 | 0.00 | 0.00 | 19 | 1010.4 |
| 20260508183408 | 23 | 309 | 6.4 | 19.3 | 0.00 | 0.00 | 0.00 | 19 | 1010.5 |
| 20260508182902 | 24 | 291 | 4.8 | 14.5 | 0.00 | 0.00 | 0.00 | 20 | 1010.5 |
| 20260508182402 | 24 | 253 | 3.2 | 14.5 | 0.00 | 0.00 | 0.00 | 21 | 1010.5 |
| 20260508181402 | 23 | 255 | 4.8 | 14.5 | 0.00 | 0.00 | 0.00 | 20 | 1010.8 |
| 20260508180901 | 23 | 237 | 8.0 | 14.5 | 0.00 | 0.00 | 0.00 | 22 | 1010.8 |
| 20260508180402 | 23 | 230 | 3.2 | 16.1 | 0.00 | 0.00 | 0.00 | 22 | 1011.0 |
| 20260508174402 | 23 | 235 | 4.8 | 12.9 | 0.00 | 0.00 | 0.00 | 20 | 1011.2 |
| 20260508173901 | 22 | 223 | 1.6 | 9.7 | 0.00 | 0.00 | 0.00 | 20 | 1011.2 |
| 20260508172402 | 21 | 45 | 0.0 | 1.6 | 0.00 | 0.00 | 0.00 | 22 | 1011.1 |
| 20260508171902 | 22 | 328 | 1.6 | 12.9 | 0.00 | 0.00 | 0.00 | 22 | 1011.2 |
| 20260508171402 | 22 | 252 | 1.6 | 8.0 | 0.00 | 0.00 | 0.00 | 22 | 1011.1 |
| 20260508170902 | 22 | 272 | 0.0 | 3.2 | 0.00 | 0.00 | 0.00 | 23 | 1011.2 |
| 20260508170401 | 21 | 232 | 1.6 | 4.8 | 0.00 | 0.00 | 0.00 | 24 | 1011.3 |
| 20260508165901 | 22 | 247 | 1.6 | 11.3 | 0.00 | 0.00 | 0.00 | 25 | 1011.2 |
| 20260508165403 | 21 | 265 | 1.6 | 4.8 | 0.00 | 0.00 | 0.00 | 26 | 1011.3 |
| 20260508164901 | 21 | 275 | 0.0 | 3.2 | 0.00 | 0.00 | 0.00 | 26 | 1011.3 |
| 20260508164402 | 21 | 256 | 1.6 | 4.8 | 0.00 | 0.00 | 0.00 | 28 | 1011.3 |
| 20260508163902 | 20 | 244 | 1.6 | 4.8 | 0.00 | 0.00 | 0.00 | 29 | 1011.3 |
| 20260508162902 | 20 | 221 | 1.6 | 9.7 | 0.00 | 0.00 | 0.00 | 31 | 1011.3 |
| 20260508162402 | 20 | 241 | 0.0 | 4.8 | 0.00 | 0.00 | 0.00 | 30 | 1011.4 |
| 20260508161402 | 19 | 238 | 0.0 | 0.0 | 0.00 | 0.00 | 0.00 | 32 | 1011.5 |
| 20260508160901 | 18 | 238 | 1.6 | 8.0 | 0.00 | 0.00 | 0.00 | 34 | 1011.5 |
| 20260508160408 | 17 | 254 | 0.0 | 0.0 | 0.00 | 0.00 | 0.00 | 36 | 1011.5 |
| 20260508155902 | 17 | 301 | 0.0 | 0.0 | 0.00 | 0.00 | 0.00 | 35 | 1011.5 |
| 20260508155402 | 17 | 319 | 0.0 | 0.0 | 0.00 | 0.00 | 0.00 | 37 | 1011.5 |
| 20260508154902 | 17 | 319 | 0.0 | 0.0 | 0.00 | 0.00 | 0.00 | 37 | 1011.6 |
| 20260508153402 | 16 | 279 | 0.0 | 0.0 | 0.00 | 0.00 | 0.00 | 38 | 1011.5 |
| 20260508152902 | 16 | 280 | 0.0 | 0.0 | 0.00 | 0.00 | 0.00 | 40 | 1011.5 |
| 20260508152402 | 16 | 281 | 0.0 | 0.0 | 0.00 | 0.00 | 0.00 | 39 | 1011.6 |
| 20260508151902 | 16 | 281 | 0.0 | 0.0 | 0.00 | 0.00 | 0.00 | 40 | 1011.6 |
| 20260508151402 | 15 | 352 | 0.0 | 0.0 | 0.00 | 0.00 | 0.00 | 42 | 1011.6 |
| 20260508150402 | 15 | 47 | 0.0 | 0.0 | 0.00 | 0.00 | 0.00 | 45 | 1011.5 |
| 20260508145902 | 15 | 47 | 0.0 | 0.0 | 0.00 | 0.00 | 0.00 | 45 | 1011.6 |
| 20260508145402 | 15 | 95 | 0.0 | 0.0 | 0.00 | 0.00 | 0.00 | 47 | 1011.6 |
| 20260508144402 | 14 | 95 | 0.0 | 0.0 | 0.00 | 0.00 | 0.00 | 49 | 1011.6 |
| 20260508143402 | 13 | 95 | 0.0 | 0.0 | 0.00 | 0.00 | 0.00 | 53 | 1011.7 |
| 20260508142903 | 12 | 95 | 0.0 | 0.0 | 0.00 | 0.00 | 0.00 | 54 | 1011.7 |
| 20260508142402 | 12 | 95 | 0.0 | 0.0 | 0.00 | 0.00 | 0.00 | 55 | 1011.8 |
| 20260508141902 | 12 | 95 | 0.0 | 0.0 | 0.00 | 0.00 | 0.00 | 57 | 1011.8 |
| 20260508141402 | 11 | 95 | 0.0 | 0.0 | 0.00 | 0.00 | 0.00 | 51 | 1011.9 |
| 20260508140902 | 11 | 95 | 0.0 | 0.0 | 0.00 | 0.00 | 0.00 | 52 | 1011.9 |
| 20260508140402 | 11 | 95 | 0.0 | 0.0 | 0.00 | 0.00 | 0.00 | 51 | 1011.8 |
| 20260508135902 | 10 | 95 | 0.0 | 0.0 | 0.00 | 0.00 | 0.00 | 54 | 1011.8 |
| 20260508135402 | 10 | 95 | 0.0 | 0.0 | 0.00 | 0.00 | 0.00 | 56 | 1011.8 |
| 20260508134902 | 10 | 95 | 0.0 | 0.0 | 0.00 | 0.00 | 0.00 | 59 | 1011.7 |
| 20260508134403 | 9 | 95 | 0.0 | 0.0 | 0.00 | 0.00 | 0.00 | 62 | 1011.7 |
| 20260508133902 | 8 | 95 | 0.0 | 0.0 | 0.00 | 0.00 | 0.00 | 62 | 1011.6 |
| 20260508133403 | 8 | 95 | 0.0 | 0.0 | 0.00 | 0.00 | 0.00 | 61 | 1011.6 |
| 20260508132902 | 8 | 95 | 0.0 | 0.0 | 0.00 | 0.00 | 0.00 | 60 | 1011.5 |
| 20260508132402 | 8 | 95 | 0.0 | 1.6 | 0.00 | 0.00 | 0.00 | 59 | 1011.5 |
| 20260508131903 | 8 | 94 | 0.0 | 0.0 | 0.00 | 0.00 | 0.00 | 57 | 1011.5 |
| 20260508131403 | 8 | 94 | 0.0 | 0.0 | 0.00 | 0.00 | 0.00 | 57 | 1011.5 |
| 20260508130402 | 8 | 94 | 0.0 | 0.0 | 0.00 | 0.00 | 0.00 | 59 | 1011.4 |
| 20260508125402 | 7 | 94 | 0.0 | 0.0 | 0.00 | 0.00 | 0.00 | 60 | 1011.4 |
| 20260508124902 | 8 | 94 | 0.0 | 0.0 | 0.00 | 0.00 | 0.00 | 60 | 1011.3 |
| 20260508124403 | 8 | 94 | 0.0 | 0.0 | 0.00 | 0.00 | 0.00 | 60 | 1011.2 |
| 20260508123902 | 8 | 94 | 0.0 | 0.0 | 0.00 | 0.00 | 0.00 | 60 | 1011.1 |
| 20260508123402 | 8 | 94 | 0.0 | 0.0 | 0.00 | 0.00 | 0.00 | 60 | 1011.1 |
| 20260508122902 | 8 | 94 | 0.0 | 0.0 | 0.00 | 0.00 | 0.00 | 59 | 1010.9 |
| 20260508122402 | 8 | 94 | 0.0 | 0.0 | 0.00 | 0.00 | 0.00 | 60 | 1010.9 |
| 20260508121902 | 8 | 94 | 0.0 | 0.0 | 0.00 | 0.00 | 0.00 | 60 | 1010.9 |
| 20260508121402 | 8 | 94 | 0.0 | 0.0 | 0.00 | 0.00 | 0.00 | 58 | 1010.8 |
| 20260508120403 | 8 | 94 | 0.0 | 0.0 | 0.00 | 0.00 | 0.00 | 58 | 1010.8 |
| 20260508115903 | 8 | 94 | 0.0 | 0.0 | 0.00 | 0.00 | 0.00 | 58 | 1010.9 |
| 20260508115402 | 8 | 94 | 0.0 | 0.0 | 0.00 | 0.00 | 0.00 | 58 | 1010.9 |
| 20260508114902 | 8 | 94 | 0.0 | 0.0 | 0.00 | 0.00 | 0.00 | 58 | 1010.9 |
| 20260508114403 | 8 | 94 | 0.0 | 0.0 | 0.00 | 0.00 | 0.00 | 60 | 1010.9 |
| 20260508113402 | 8 | 94 | 0.0 | 0.0 | 0.00 | 0.00 | 0.00 | 57 | 1010.9 |
| 20260508112903 | 8 | 94 | 0.0 | 0.0 | 0.00 | 0.00 | 0.00 | 57 | 1010.9 |
| 20260508112402 | 8 | 94 | 0.0 | 0.0 | 0.00 | 0.00 | 0.00 | 56 | 1010.9 |
| 20260508111403 | 8 | 94 | 0.0 | 0.0 | 0.00 | 0.00 | 0.00 | 56 | 1010.9 |
| 20260508110902 | 8 | 92 | 0.0 | 0.0 | 0.00 | 0.00 | 0.00 | 57 | 1010.9 |
| 20260508110403 | 7 | 18 | 0.0 | 0.0 | 0.00 | 0.00 | 0.00 | 57 | 1011.0 |
| 20260508105902 | 8 | 18 | 0.0 | 0.0 | 0.00 | 0.00 | 0.00 | 56 | 1010.9 |
| 20260508105402 | 8 | 18 | 0.0 | 0.0 | 0.00 | 0.00 | 0.00 | 56 | 1010.9 |
| 20260508104402 | 8 | 19 | 0.0 | 0.0 | 0.00 | 0.00 | 0.00 | 56 | 1010.8 |
| 20260508102902 | 8 | 18 | 0.0 | 0.0 | 0.00 | 0.00 | 0.00 | 56 | 1010.7 |
| 20260508102403 | 8 | 18 | 0.0 | 0.0 | 0.00 | 0.00 | 0.00 | 55 | 1010.6 |
| 20260508101902 | 8 | 18 | 0.0 | 0.0 | 0.00 | 0.00 | 0.00 | 56 | 1010.6 |
| 20260508101403 | 8 | 19 | 0.0 | 0.0 | 0.00 | 0.00 | 0.00 | 56 | 1010.5 |
| 20260508100902 | 8 | 18 | 0.0 | 0.0 | 0.00 | 0.00 | 0.00 | 55 | 1010.5 |
| 20260508100403 | 8 | 18 | 0.0 | 0.0 | 0.00 | 0.00 | 0.00 | 57 | 1010.5 |
| 20260508095402 | 8 | 19 | 0.0 | 0.0 | 0.00 | 0.00 | 0.00 | 56 | 1010.6 |
| 20260508094903 | 8 | 18 | 0.0 | 0.0 | 0.00 | 0.00 | 0.00 | 57 | 1010.6 |
| 20260508094403 | 8 | 19 | 0.0 | 0.0 | 0.00 | 0.00 | 0.00 | 56 | 1010.6 |
| 20260508093902 | 8 | 18 | 0.0 | 0.0 | 0.00 | 0.00 | 0.00 | 56 | 1010.6 |
| 20260508093402 | 8 | 18 | 0.0 | 0.0 | 0.00 | 0.00 | 0.00 | 56 | 1010.5 |
| 20260508092903 | 8 | 18 | 0.0 | 0.0 | 0.00 | 0.00 | 0.00 | 55 | 1010.5 |
| 20260508092402 | 8 | 18 | 0.0 | 0.0 | 0.00 | 0.00 | 0.00 | 54 | 1010.6 |
| 20260508091903 | 8 | 18 | 0.0 | 0.0 | 0.00 | 0.00 | 0.00 | 53 | 1010.6 |
| 20260508091403 | 9 | 18 | 0.0 | 0.0 | 0.00 | 0.00 | 0.00 | 53 | 1010.6 |
| 20260508090902 | 9 | 18 | 0.0 | 0.0 | 0.00 | 0.00 | 0.00 | 52 | 1010.7 |
| 20260508090402 | 9 | 18 | 0.0 | 0.0 | 0.00 | 0.00 | 0.00 | 52 | 1010.6 |
| 20260508085903 | 9 | 18 | 0.0 | 0.0 | 0.00 | 0.00 | 0.00 | 52 | 1010.7 |
| 20260508085403 | 9 | 18 | 0.0 | 0.0 | 0.00 | 0.00 | 0.00 | 51 | 1010.8 |
| 20260508084902 | 10 | 18 | 0.0 | 0.0 | 0.00 | 0.00 | 0.00 | 50 | 1010.9 |
| 20260508084403 | 10 | 18 | 0.0 | 0.0 | 0.00 | 0.00 | 0.00 | 49 | 1010.9 |
| 20260508083903 | 10 | 19 | 0.0 | 0.0 | 0.00 | 0.00 | 0.00 | 50 | 1010.9 |
| 20260508083402 | 10 | 19 | 0.0 | 0.0 | 0.00 | 0.00 | 0.00 | 49 | 1010.9 |
| 20260508082902 | 10 | 18 | 0.0 | 0.0 | 0.00 | 0.00 | 0.00 | 49 | 1010.9 |
| 20260508082403 | 11 | 18 | 0.0 | 0.0 | 0.00 | 0.00 | 0.00 | 48 | 1010.9 |
| 20260508081903 | 11 | 18 | 0.0 | 0.0 | 0.00 | 0.00 | 0.00 | 47 | 1010.9 |
| 20260508081403 | 10 | 18 | 0.0 | 0.0 | 0.00 | 0.00 | 0.00 | 49 | 1010.8 |
| 20260508080403 | 10 | 18 | 0.0 | 0.0 | 0.00 | 0.00 | 0.00 | 53 | 1010.9 |
| 20260508075902 | 10 | 18 | 0.0 | 0.0 | 0.00 | 0.00 | 0.00 | 53 | 1010.9 |
| 20260508075403 | 10 | 18 | 0.0 | 0.0 | 0.00 | 0.00 | 0.00 | 53 | 1010.9 |
| 20260508074902 | 10 | 18 | 0.0 | 0.0 | 0.00 | 0.00 | 0.00 | 53 | 1010.8 |
| 20260508074402 | 10 | 18 | 0.0 | 0.0 | 0.00 | 0.00 | 0.00 | 53 | 1010.9 |
| 20260508073903 | 10 | 18 | 0.0 | 0.0 | 0.00 | 0.00 | 0.00 | 52 | 1010.9 |
| 20260508073402 | 10 | 18 | 0.0 | 0.0 | 0.00 | 0.00 | 0.00 | 52 | 1010.9 |
| 20260508072903 | 10 | 18 | 0.0 | 0.0 | 0.00 | 0.00 | 0.00 | 51 | 1011.0 |
| 20260508072402 | 10 | 18 | 0.0 | 0.0 | 0.00 | 0.00 | 0.00 | 50 | 1011.0 |
| 20260508071903 | 10 | 18 | 0.0 | 0.0 | 0.00 | 0.00 | 0.00 | 50 | 1011.0 |
| 20260508071403 | 11 | 18 | 0.0 | 0.0 | 0.00 | 0.00 | 0.00 | 49 | 1011.1 |
| 20260508070903 | 11 | 18 | 0.0 | 0.0 | 0.00 | 0.00 | 0.00 | 49 | 1011.1 |
| 20260508070403 | 11 | 18 | 0.0 | 0.0 | 0.00 | 0.00 | 0.00 | 49 | 1011.1 |
| 20260508065903 | 11 | 18 | 0.0 | 0.0 | 0.00 | 0.00 | 0.00 | 48 | 1011.2 |
| 20260508065403 | 11 | 18 | 0.0 | 0.0 | 0.00 | 0.00 | 0.00 | 48 | 1011.2 |
| 20260508064904 | 11 | 18 | 0.0 | 0.0 | 0.00 | 0.00 | 0.00 | 48 | 1011.1 |
| 20260508064403 | 11 | 18 | 0.0 | 0.0 | 0.00 | 0.00 | 0.00 | 48 | 1011.0 |
| 20260508063904 | 11 | 18 | 0.0 | 0.0 | 0.00 | 0.00 | 0.00 | 48 | 1011.0 |
| 20260508063403 | 11 | 18 | 0.0 | 0.0 | 0.00 | 0.00 | 0.00 | 48 | 1011.0 |
| 20260508060903 | 11 | 18 | 0.0 | 0.0 | 0.00 | 0.00 | 0.00 | 47 | 1010.9 |
| 20260508060403 | 11 | 18 | 0.0 | 0.0 | 0.00 | 0.00 | 0.00 | 47 | 1010.9 |
| 20260508055403 | 11 | 18 | 0.0 | 0.0 | 0.00 | 0.00 | 0.00 | 46 | 1011.0 |
| 20260508054903 | 11 | 18 | 0.0 | 0.0 | 0.00 | 0.00 | 0.00 | 46 | 1011.0 |
| 20260508054403 | 12 | 18 | 0.0 | 0.0 | 0.00 | 0.00 | 0.00 | 45 | 1011.0 |
| 20260508053903 | 12 | 18 | 0.0 | 0.0 | 0.00 | 0.00 | 0.00 | 44 | 1011.0 |
| 20260508053403 | 12 | 18 | 0.0 | 0.0 | 0.00 | 0.00 | 0.00 | 44 | 1011.1 |
| 20260508052403 | 12 | 18 | 0.0 | 0.0 | 0.00 | 0.00 | 0.00 | 43 | 1011.1 |
| 20260508051903 | 12 | 18 | 1.6 | 3.2 | 0.00 | 0.00 | 0.00 | 43 | 1011.0 |
| 20260508051403 | 12 | 14 | 0.0 | 0.0 | 0.00 | 0.00 | 0.00 | 43 | 1011.2 |
| 20260508050903 | 12 | 14 | 0.0 | 0.0 | 0.00 | 0.00 | 0.00 | 42 | 1011.1 |
| 20260508050403 | 13 | 13 | 0.0 | 0.0 | 0.00 | 0.00 | 0.00 | 42 | 1011.2 |
| 20260508045903 | 12 | 13 | 0.0 | 0.0 | 0.00 | 0.00 | 0.00 | 42 | 1011.2 |
| 20260508044904 | 12 | 13 | 0.0 | 0.0 | 0.00 | 0.00 | 0.00 | 42 | 1011.3 |
| 20260508044403 | 12 | 11 | 0.0 | 0.0 | 0.00 | 0.00 | 0.00 | 43 | 1011.2 |
| 20260508043904 | 12 | 11 | 0.0 | 0.0 | 0.00 | 0.00 | 0.00 | 42 | 1011.2 |
| 20260508043403 | 13 | 11 | 0.0 | 0.0 | 0.00 | 0.00 | 0.00 | 42 | 1011.3 |
| 20260508042403 | 13 | 11 | 0.0 | 0.0 | 0.00 | 0.00 | 0.00 | 41 | 1011.4 |
| 20260508041903 | 13 | 5 | 0.0 | 0.0 | 0.00 | 0.00 | 0.00 | 41 | 1011.4 |
| 20260508041404 | 13 | 355 | 0.0 | 0.0 | 0.00 | 0.00 | 0.00 | 40 | 1011.3 |
| 20260508040903 | 13 | 355 | 0.0 | 0.0 | 0.00 | 0.00 | 0.00 | 40 | 1011.3 |
| 20260508035903 | 14 | 355 | 0.0 | 0.0 | 0.00 | 0.00 | 0.00 | 40 | 1011.3 |
| 20260508034403 | 15 | 107 | 0.0 | 0.0 | 0.00 | 0.00 | 0.00 | 35 | 1010.9 |
| 20260508033903 | 15 | 107 | 0.0 | 0.0 | 0.00 | 0.00 | 0.00 | 35 | 1010.9 |
| 20260508033404 | 15 | 107 | 0.0 | 0.0 | 0.00 | 0.00 | 0.00 | 35 | 1010.8 |
| 20260508032903 | 15 | 107 | 0.0 | 0.0 | 0.00 | 0.00 | 0.00 | 35 | 1010.8 |
| 20260508031404 | 16 | 114 | 1.6 | 8.0 | 0.00 | 0.00 | 0.00 | 35 | 1010.6 |
| 20260508030903 | 16 | 257 | 0.0 | 0.0 | 0.00 | 0.00 | 0.00 | 36 | 1010.6 |
| 20260508030403 | 17 | 257 | 0.0 | 0.0 | 0.00 | 0.00 | 0.00 | 34 | 1010.7 |
| 20260508025903 | 17 | 257 | 0.0 | 0.0 | 0.00 | 0.00 | 0.00 | 32 | 1010.7 |
| 20260508025404 | 17 | 257 | 0.0 | 0.0 | 0.00 | 0.00 | 0.00 | 30 | 1010.6 |
| 20260508024904 | 18 | 257 | 0.0 | 0.0 | 0.00 | 0.00 | 0.00 | 31 | 1010.7 |
| 20260508024403 | 18 | 257 | 0.0 | 0.0 | 0.00 | 0.00 | 0.00 | 30 | 1010.6 |
| 20260508023903 | 18 | 257 | 0.0 | 0.0 | 0.00 | 0.00 | 0.00 | 28 | 1010.6 |
| 20260508022903 | 18 | 257 | 0.0 | 0.0 | 0.00 | 0.00 | 0.00 | 28 | 1010.6 |
| 20260508022403 | 19 | 257 | 0.0 | 0.0 | 0.00 | 0.00 | 0.00 | 28 | 1010.6 |
| 20260508020903 | 20 | 257 | 0.0 | 0.0 | 0.00 | 0.00 | 0.00 | 27 | 1010.5 |
| 20260508020403 | 20 | 257 | 0.0 | 0.0 | 0.00 | 0.00 | 0.00 | 27 | 1010.4 |
| 20260508015903 | 20 | 257 | 0.0 | 0.0 | 0.00 | 0.00 | 0.00 | 26 | 1010.4 |
| 20260508015407 | 20 | 257 | 1.6 | 8.0 | 0.00 | 0.00 | 0.00 | 25 | 1010.4 |
| 20260508014903 | 21 | 259 | 0.0 | 0.0 | 0.00 | 0.00 | 0.00 | 25 | 1010.4 |
| 20260508014403 | 21 | 259 | 0.0 | 0.0 | 0.00 | 0.00 | 0.00 | 26 | 1010.4 |
| 20260508013403 | 21 | 255 | 3.2 | 9.7 | 0.00 | 0.00 | 0.00 | 24 | 1010.6 |
| 20260508012904 | 21 | 272 | 3.2 | 11.3 | 0.00 | 0.00 | 0.00 | 24 | 1010.7 |
| 20260508012404 | 21 | 262 | 0.0 | 11.3 | 0.00 | 0.00 | 0.00 | 23 | 1010.8 |
| 20260508011404 | 21 | 344 | 0.0 | 0.0 | 0.00 | 0.00 | 0.00 | 21 | 1010.8 |
| 20260508010903 | 21 | 344 | 0.0 | 0.0 | 0.00 | 0.00 | 0.00 | 22 | 1010.9 |
| 20260508010404 | 21 | 343 | 0.0 | 4.8 | 0.00 | 0.00 | 0.00 | 22 | 1011.1 |
| 20260508005404 | 21 | 267 | 0.0 | 8.0 | 0.00 | 0.00 | 0.00 | 24 | 1011.2 |
| 20260508004903 | 22 | 298 | 1.6 | 4.8 | 0.00 | 0.00 | 0.00 | 22 | 1011.2 |
| 20260508004404 | 22 | 251 | 3.2 | 16.1 | 0.00 | 0.00 | 0.00 | 23 | 1011.2 |
| 20260508003904 | 22 | 293 | 3.2 | 14.5 | 0.00 | 0.00 | 0.00 | 23 | 1011.2 |
| 20260508003403 | 22 | 306 | 4.8 | 20.9 | 0.00 | 0.00 | 0.00 | 22 | 1011.2 |
| 20260508002904 | 22 | 295 | 8.0 | 20.9 | 0.00 | 0.00 | 0.00 | 22 | 1011.3 |
| 20260508002404 | 22 | 243 | 4.8 | 12.9 | 0.00 | 0.00 | 0.00 | 21 | 1011.3 |
| 20260508001901 | 22 | 247 | 1.6 | 11.3 | 0.00 | 0.00 | 0.00 | 22 | 1011.3 |
| 20260508001401 | 22 | 288 | 1.6 | 9.7 | 0.00 | 0.00 | 0.00 | 24 | 1011.3 |
| 20260508000401 | 22 | 292 | 0.0 | 9.7 | 0.00 | 0.00 | 0.00 | 23 | 1011.5 |
| 20260507235901 | 22 | 291 | 0.0 | 0.0 | 0.00 | 0.00 | 0.00 | 22 | 1011.6 |
| 20260507235400 | 22 | 314 | 1.6 | 8.0 | 0.00 | 0.00 | 0.00 | 22 | 1011.5 |
| 20260507234402 | 22 | 299 | 6.4 | 12.9 | 0.00 | 0.00 | 0.00 | 21 | 1011.5 |
| 20260507233901 | 23 | 308 | 3.2 | 16.1 | 0.00 | 0.00 | 0.00 | 20 | 1011.5 |
| 20260507232901 | 22 | 291 | 1.6 | 27.4 | 0.00 | 0.00 | 0.00 | 23 | 1011.7 |
| 20260507232401 | 22 | 255 | 3.2 | 16.1 | 0.00 | 0.00 | 0.00 | 20 | 1011.7 |
| 20260507231901 | 22 | 257 | 9.7 | 19.3 | 0.00 | 0.00 | 0.00 | 20 | 1011.7 |
| 20260507231401 | 22 | 247 | 4.8 | 22.5 | 0.00 | 0.00 | 0.00 | 20 | 1011.8 |
| 20260507230901 | 22 | 255 | 3.2 | 32.2 | 0.00 | 0.00 | 0.00 | 20 | 1011.8 |
| 20260507230401 | 22 | 256 | 16.1 | 32.2 | 0.00 | 0.00 | 0.00 | 19 | 1011.9 |
| 20260507225901 | 23 | 233 | 14.5 | 27.4 | 0.00 | 0.00 | 0.00 | 19 | 1011.9 |
| 20260507225401 | 23 | 256 | 8.0 | 24.1 | 0.00 | 0.00 | 0.00 | 19 | 1012.0 |